sensor_id;sensor_type;location;lat;lon;timestamp;P1;durP1;ratioP1;P2;durP2;ratioP2
9563;SDS011;4820;50.870;4.702;2022-12-11T00:00:22;13.83;;;10.77;;
9563;SDS011;4820;50.870;4.702;2022-12-11T00:02:50;14.00;;;10.80;;
9563;SDS011;4820;50.870;4.702;2022-12-11T00:05:16;14.40;;;10.47;;
9563;SDS011;4820;50.870;4.702;2022-12-11T00:07:42;14.70;;;10.70;;
9563;SDS011;4820;50.870;4.702;2022-12-11T00:10:07;15.07;;;10.30;;
9563;SDS011;4820;50.870;4.702;2022-12-11T00:12:33;14.17;;;10.30;;
9563;SDS011;4820;50.870;4.702;2022-12-11T00:14:59;14.47;;;10.37;;
9563;SDS011;4820;50.870;4.702;2022-12-11T00:17:24;14.63;;;10.43;;
9563;SDS011;4820;50.870;4.702;2022-12-11T00:19:50;13.67;;;9.67;;
9563;SDS011;4820;50.870;4.702;2022-12-11T00:22:16;13.17;;;9.13;;
9563;SDS011;4820;50.870;4.702;2022-12-11T00:24:41;13.53;;;9.67;;
9563;SDS011;4820;50.870;4.702;2022-12-11T00:27:07;13.53;;;10.03;;
9563;SDS011;4820;50.870;4.702;2022-12-11T00:29:33;13.50;;;9.87;;
9563;SDS011;4820;50.870;4.702;2022-12-11T00:31:58;14.90;;;9.47;;
9563;SDS011;4820;50.870;4.702;2022-12-11T00:34:24;12.40;;;9.10;;
9563;SDS011;4820;50.870;4.702;2022-12-11T00:36:50;13.70;;;10.33;;
9563;SDS011;4820;50.870;4.702;2022-12-11T00:39:16;15.53;;;10.20;;
9563;SDS011;4820;50.870;4.702;2022-12-11T00:41:41;13.20;;;9.73;;
9563;SDS011;4820;50.870;4.702;2022-12-11T00:44:07;14.37;;;9.73;;
9563;SDS011;4820;50.870;4.702;2022-12-11T00:46:33;15.13;;;10.53;;
9563;SDS011;4820;50.870;4.702;2022-12-11T00:48:59;13.83;;;10.60;;
9563;SDS011;4820;50.870;4.702;2022-12-11T00:51:24;16.27;;;10.87;;
9563;SDS011;4820;50.870;4.702;2022-12-11T00:53:50;15.90;;;10.57;;
9563;SDS011;4820;50.870;4.702;2022-12-11T00:56:17;15.13;;;10.67;;
9563;SDS011;4820;50.870;4.702;2022-12-11T00:58:46;13.83;;;10.40;;
9563;SDS011;4820;50.870;4.702;2022-12-11T01:01:13;17.37;;;11.03;;
9563;SDS011;4820;50.870;4.702;2022-12-11T01:03:41;14.73;;;11.13;;
9563;SDS011;4820;50.870;4.702;2022-12-11T01:06:07;14.87;;;10.90;;
9563;SDS011;4820;50.870;4.702;2022-12-11T01:08:36;16.07;;;11.30;;
9563;SDS011;4820;50.870;4.702;2022-12-11T01:11:03;15.40;;;10.83;;
9563;SDS011;4820;50.870;4.702;2022-12-11T01:13:31;15.23;;;10.63;;
9563;SDS011;4820;50.870;4.702;2022-12-11T01:15:57;16.50;;;11.20;;
9563;SDS011;4820;50.870;4.702;2022-12-11T01:18:23;14.67;;;10.83;;
9563;SDS011;4820;50.870;4.702;2022-12-11T01:20:49;18.97;;;11.43;;
9563;SDS011;4820;50.870;4.702;2022-12-11T01:23:15;16.87;;;11.23;;
9563;SDS011;4820;50.870;4.702;2022-12-11T01:25:41;16.43;;;11.37;;
9563;SDS011;4820;50.870;4.702;2022-12-11T01:28:08;17.20;;;11.50;;
9563;SDS011;4820;50.870;4.702;2022-12-11T01:30:34;17.10;;;11.60;;
9563;SDS011;4820;50.870;4.702;2022-12-11T01:33:00;15.00;;;11.07;;
9563;SDS011;4820;50.870;4.702;2022-12-11T01:35:26;16.03;;;11.90;;
9563;SDS011;4820;50.870;4.702;2022-12-11T01:37:52;16.60;;;11.43;;
9563;SDS011;4820;50.870;4.702;2022-12-11T01:40:18;16.03;;;11.90;;
9563;SDS011;4820;50.870;4.702;2022-12-11T01:42:45;16.77;;;12.00;;
9563;SDS011;4820;50.870;4.702;2022-12-11T01:47:57;18.03;;;11.73;;
9563;SDS011;4820;50.870;4.702;2022-12-11T01:50:26;20.53;;;12.80;;
9563;SDS011;4820;50.870;4.702;2022-12-11T01:52:55;18.57;;;12.27;;
9563;SDS011;4820;50.870;4.702;2022-12-11T01:55:21;16.97;;;12.23;;
9563;SDS011;4820;50.870;4.702;2022-12-11T01:57:48;15.90;;;11.47;;
9563;SDS011;4820;50.870;4.702;2022-12-11T02:00:15;16.93;;;12.17;;
9563;SDS011;4820;50.870;4.702;2022-12-11T02:02:41;15.47;;;11.20;;
9563;SDS011;4820;50.870;4.702;2022-12-11T02:05:07;17.73;;;12.37;;
9563;SDS011;4820;50.870;4.702;2022-12-11T02:07:37;18.77;;;12.57;;
9563;SDS011;4820;50.870;4.702;2022-12-11T02:10:07;17.13;;;11.37;;
9563;SDS011;4820;50.870;4.702;2022-12-11T02:12:37;18.63;;;11.67;;
9563;SDS011;4820;50.870;4.702;2022-12-11T02:20:30;16.13;;;11.47;;
9563;SDS011;4820;50.870;4.702;2022-12-11T02:23:07;16.33;;;11.80;;
9563;SDS011;4820;50.870;4.702;2022-12-11T02:31:11;18.53;;;11.77;;
9563;SDS011;4820;50.870;4.702;2022-12-11T02:34:31;20.93;;;13.03;;
9563;SDS011;4820;50.870;4.702;2022-12-11T02:36:42;16.53;;;11.97;;
9563;SDS011;4820;50.870;4.702;2022-12-11T02:39:12;16.80;;;11.63;;
9563;SDS011;4820;50.870;4.702;2022-12-11T02:41:42;17.20;;;11.83;;
9563;SDS011;4820;50.870;4.702;2022-12-11T02:44:12;16.80;;;12.00;;
9563;SDS011;4820;50.870;4.702;2022-12-11T02:46:40;19.60;;;12.37;;
9563;SDS011;4820;50.870;4.702;2022-12-11T02:49:08;16.63;;;11.23;;
9563;SDS011;4820;50.870;4.702;2022-12-11T02:51:38;17.17;;;11.93;;
9563;SDS011;4820;50.870;4.702;2022-12-11T02:54:06;15.07;;;11.30;;
9563;SDS011;4820;50.870;4.702;2022-12-11T02:56:41;16.23;;;11.03;;
9563;SDS011;4820;50.870;4.702;2022-12-11T02:59:14;16.93;;;11.50;;
9563;SDS011;4820;50.870;4.702;2022-12-11T03:01:44;15.47;;;11.17;;
9563;SDS011;4820;50.870;4.702;2022-12-11T03:04:10;15.82;;;11.70;;
9563;SDS011;4820;50.870;4.702;2022-12-11T03:06:38;17.83;;;11.37;;
9563;SDS011;4820;50.870;4.702;2022-12-11T03:09:10;17.33;;;11.93;;
9563;SDS011;4820;50.870;4.702;2022-12-11T03:11:37;16.67;;;11.63;;
9563;SDS011;4820;50.870;4.702;2022-12-11T03:14:03;15.60;;;11.40;;
9563;SDS011;4820;50.870;4.702;2022-12-11T03:16:33;17.53;;;11.60;;
9563;SDS011;4820;50.870;4.702;2022-12-11T03:24:44;17.00;;;12.07;;
9563;SDS011;4820;50.870;4.702;2022-12-11T03:27:26;17.87;;;11.40;;
9563;SDS011;4820;50.870;4.702;2022-12-11T03:30:03;16.40;;;11.60;;
9563;SDS011;4820;50.870;4.702;2022-12-11T03:32:39;16.90;;;11.27;;
9563;SDS011;4820;50.870;4.702;2022-12-11T03:35:26;17.87;;;12.30;;
9563;SDS011;4820;50.870;4.702;2022-12-11T03:38:07;17.63;;;12.33;;
9563;SDS011;4820;50.870;4.702;2022-12-11T03:40:42;17.17;;;11.97;;
9563;SDS011;4820;50.870;4.702;2022-12-11T03:43:11;14.00;;;10.70;;
9563;SDS011;4820;50.870;4.702;2022-12-11T03:45:39;17.63;;;11.37;;
9563;SDS011;4820;50.870;4.702;2022-12-11T03:48:06;14.27;;;10.70;;
9563;SDS011;4820;50.870;4.702;2022-12-11T03:50:34;15.77;;;11.37;;
9563;SDS011;4820;50.870;4.702;2022-12-11T03:53:00;15.53;;;10.77;;
9563;SDS011;4820;50.870;4.702;2022-12-11T03:55:28;18.57;;;11.97;;
9563;SDS011;4820;50.870;4.702;2022-12-11T03:57:56;15.77;;;10.53;;
9563;SDS011;4820;50.870;4.702;2022-12-11T04:00:22;14.67;;;11.10;;
9563;SDS011;4820;50.870;4.702;2022-12-11T04:02:48;16.13;;;11.60;;
9563;SDS011;4820;50.870;4.702;2022-12-11T04:05:34;15.63;;;10.90;;
9563;SDS011;4820;50.870;4.702;2022-12-11T04:08:00;15.57;;;10.73;;
9563;SDS011;4820;50.870;4.702;2022-12-11T04:10:26;15.33;;;10.67;;
9563;SDS011;4820;50.870;4.702;2022-12-11T04:12:51;14.13;;;10.90;;
9563;SDS011;4820;50.870;4.702;2022-12-11T04:15:17;16.53;;;11.13;;
9563;SDS011;4820;50.870;4.702;2022-12-11T04:17:42;14.73;;;10.67;;
9563;SDS011;4820;50.870;4.702;2022-12-11T04:20:27;16.37;;;11.80;;
9563;SDS011;4820;50.870;4.702;2022-12-11T04:23:12;14.33;;;10.97;;
9563;SDS011;4820;50.870;4.702;2022-12-11T04:26:08;18.07;;;11.40;;
9563;SDS011;4820;50.870;4.702;2022-12-11T04:28:36;15.00;;;10.70;;
9563;SDS011;4820;50.870;4.702;2022-12-11T04:31:02;16.63;;;11.57;;
9563;SDS011;4820;50.870;4.702;2022-12-11T04:33:29;13.70;;;10.37;;
9563;SDS011;4820;50.870;4.702;2022-12-11T04:35:58;16.27;;;11.23;;
9563;SDS011;4820;50.870;4.702;2022-12-11T04:38:27;14.53;;;10.50;;
9563;SDS011;4820;50.870;4.702;2022-12-11T04:40:59;17.23;;;11.43;;
9563;SDS011;4820;50.870;4.702;2022-12-11T04:43:35;16.73;;;11.30;;
9563;SDS011;4820;50.870;4.702;2022-12-11T04:46:06;14.73;;;10.43;;
9563;SDS011;4820;50.870;4.702;2022-12-11T04:48:37;15.67;;;10.90;;
9563;SDS011;4820;50.870;4.702;2022-12-11T04:51:03;17.57;;;11.60;;
9563;SDS011;4820;50.870;4.702;2022-12-11T04:53:29;15.60;;;10.67;;
9563;SDS011;4820;50.870;4.702;2022-12-11T04:55:56;17.23;;;11.20;;
9563;SDS011;4820;50.870;4.702;2022-12-11T04:58:22;16.70;;;11.70;;
9563;SDS011;4820;50.870;4.702;2022-12-11T05:00:48;16.67;;;11.07;;
9563;SDS011;4820;50.870;4.702;2022-12-11T05:03:14;17.47;;;11.40;;
9563;SDS011;4820;50.870;4.702;2022-12-11T05:05:39;14.87;;;11.40;;
9563;SDS011;4820;50.870;4.702;2022-12-11T05:08:05;18.50;;;11.93;;
9563;SDS011;4820;50.870;4.702;2022-12-11T05:10:32;15.97;;;11.10;;
9563;SDS011;4820;50.870;4.702;2022-12-11T05:12:57;18.53;;;11.80;;
9563;SDS011;4820;50.870;4.702;2022-12-11T05:15:23;16.07;;;10.67;;
9563;SDS011;4820;50.870;4.702;2022-12-11T05:17:50;21.20;;;12.80;;
9563;SDS011;4820;50.870;4.702;2022-12-11T05:20:15;17.87;;;12.40;;
9563;SDS011;4820;50.870;4.702;2022-12-11T05:22:41;18.47;;;12.13;;
9563;SDS011;4820;50.870;4.702;2022-12-11T05:25:07;17.57;;;11.93;;
9563;SDS011;4820;50.870;4.702;2022-12-11T05:27:32;19.27;;;11.87;;
9563;SDS011;4820;50.870;4.702;2022-12-11T05:29:58;18.27;;;11.93;;
9563;SDS011;4820;50.870;4.702;2022-12-11T05:32:24;17.47;;;12.33;;
9563;SDS011;4820;50.870;4.702;2022-12-11T05:34:49;22.57;;;12.47;;
9563;SDS011;4820;50.870;4.702;2022-12-11T05:37:15;19.60;;;12.40;;
9563;SDS011;4820;50.870;4.702;2022-12-11T05:39:41;20.17;;;13.23;;
9563;SDS011;4820;50.870;4.702;2022-12-11T05:42:07;18.67;;;12.73;;
9563;SDS011;4820;50.870;4.702;2022-12-11T05:44:33;19.90;;;12.90;;
9563;SDS011;4820;50.870;4.702;2022-12-11T05:46:58;19.03;;;12.10;;
9563;SDS011;4820;50.870;4.702;2022-12-11T05:49:24;20.13;;;12.97;;
9563;SDS011;4820;50.870;4.702;2022-12-11T05:51:50;19.70;;;12.97;;
9563;SDS011;4820;50.870;4.702;2022-12-11T05:54:16;21.90;;;13.83;;
9563;SDS011;4820;50.870;4.702;2022-12-11T05:56:41;17.60;;;12.13;;
9563;SDS011;4820;50.870;4.702;2022-12-11T05:59:07;20.23;;;12.93;;
9563;SDS011;4820;50.870;4.702;2022-12-11T06:01:35;20.02;;;12.30;;
9563;SDS011;4820;50.870;4.702;2022-12-11T06:04:03;19.20;;;12.07;;
9563;SDS011;4820;50.870;4.702;2022-12-11T06:06:30;19.37;;;13.43;;
9563;SDS011;4820;50.870;4.702;2022-12-11T06:08:56;20.03;;;12.80;;
9563;SDS011;4820;50.870;4.702;2022-12-11T06:11:26;21.13;;;13.23;;
9563;SDS011;4820;50.870;4.702;2022-12-11T06:13:53;19.70;;;13.70;;
9563;SDS011;4820;50.870;4.702;2022-12-11T06:16:20;20.60;;;13.23;;
9563;SDS011;4820;50.870;4.702;2022-12-11T06:18:46;21.67;;;14.47;;
9563;SDS011;4820;50.870;4.702;2022-12-11T06:23:46;18.73;;;12.70;;
9563;SDS011;4820;50.870;4.702;2022-12-11T06:26:14;21.63;;;13.23;;
9563;SDS011;4820;50.870;4.702;2022-12-11T06:28:40;23.20;;;14.27;;
9563;SDS011;4820;50.870;4.702;2022-12-11T06:31:06;21.43;;;13.90;;
9563;SDS011;4820;50.870;4.702;2022-12-11T06:33:31;22.10;;;14.00;;
9563;SDS011;4820;50.870;4.702;2022-12-11T06:36:03;21.00;;;12.97;;
9563;SDS011;4820;50.870;4.702;2022-12-11T06:38:30;21.77;;;14.93;;
9563;SDS011;4820;50.870;4.702;2022-12-11T06:40:57;22.70;;;15.20;;
9563;SDS011;4820;50.870;4.702;2022-12-11T06:43:24;20.20;;;14.53;;
9563;SDS011;4820;50.870;4.702;2022-12-11T06:45:50;21.02;;;14.48;;
9563;SDS011;4820;50.870;4.702;2022-12-11T06:48:16;20.53;;;14.67;;
9563;SDS011;4820;50.870;4.702;2022-12-11T06:50:43;20.80;;;14.20;;
9563;SDS011;4820;50.870;4.702;2022-12-11T06:53:10;19.20;;;12.93;;
9563;SDS011;4820;50.870;4.702;2022-12-11T06:55:36;20.37;;;14.33;;
9563;SDS011;4820;50.870;4.702;2022-12-11T06:58:02;24.47;;;15.37;;
9563;SDS011;4820;50.870;4.702;2022-12-11T07:00:29;20.93;;;13.87;;
9563;SDS011;4820;50.870;4.702;2022-12-11T07:02:55;21.53;;;14.83;;
9563;SDS011;4820;50.870;4.702;2022-12-11T07:05:20;22.43;;;14.37;;
9563;SDS011;4820;50.870;4.702;2022-12-11T07:07:46;21.73;;;13.97;;
9563;SDS011;4820;50.870;4.702;2022-12-11T07:10:11;21.13;;;14.37;;
9563;SDS011;4820;50.870;4.702;2022-12-11T07:12:37;22.80;;;14.23;;
9563;SDS011;4820;50.870;4.702;2022-12-11T07:15:04;18.50;;;13.37;;
9563;SDS011;4820;50.870;4.702;2022-12-11T07:17:30;21.20;;;13.67;;
9563;SDS011;4820;50.870;4.702;2022-12-11T07:19:56;20.40;;;13.43;;
9563;SDS011;4820;50.870;4.702;2022-12-11T07:22:22;21.93;;;14.27;;
9563;SDS011;4820;50.870;4.702;2022-12-11T07:24:48;21.60;;;14.37;;
9563;SDS011;4820;50.870;4.702;2022-12-11T07:27:13;19.33;;;13.37;;
9563;SDS011;4820;50.870;4.702;2022-12-11T07:29:39;20.40;;;13.80;;
9563;SDS011;4820;50.870;4.702;2022-12-11T07:32:05;19.83;;;13.97;;
9563;SDS011;4820;50.870;4.702;2022-12-11T07:34:32;20.50;;;13.03;;
9563;SDS011;4820;50.870;4.702;2022-12-11T07:36:57;19.30;;;13.60;;
9563;SDS011;4820;50.870;4.702;2022-12-11T07:39:23;19.37;;;13.23;;
9563;SDS011;4820;50.870;4.702;2022-12-11T07:41:49;22.93;;;14.37;;
9563;SDS011;4820;50.870;4.702;2022-12-11T07:44:14;17.70;;;12.23;;
9563;SDS011;4820;50.870;4.702;2022-12-11T07:46:40;19.27;;;13.13;;
9563;SDS011;4820;50.870;4.702;2022-12-11T07:49:06;18.53;;;13.07;;
9563;SDS011;4820;50.870;4.702;2022-12-11T07:51:33;18.03;;;12.93;;
9563;SDS011;4820;50.870;4.702;2022-12-11T07:54:00;19.70;;;13.13;;
9563;SDS011;4820;50.870;4.702;2022-12-11T07:56:29;18.30;;;12.87;;
9563;SDS011;4820;50.870;4.702;2022-12-11T07:58:57;19.47;;;13.10;;
9563;SDS011;4820;50.870;4.702;2022-12-11T08:01:25;19.13;;;13.47;;
9563;SDS011;4820;50.870;4.702;2022-12-11T08:03:52;20.63;;;13.07;;
9563;SDS011;4820;50.870;4.702;2022-12-11T08:06:18;17.30;;;12.73;;
9563;SDS011;4820;50.870;4.702;2022-12-11T08:08:48;17.23;;;12.63;;
9563;SDS011;4820;50.870;4.702;2022-12-11T08:11:14;17.37;;;12.27;;
9563;SDS011;4820;50.870;4.702;2022-12-11T08:13:40;19.33;;;13.37;;
9563;SDS011;4820;50.870;4.702;2022-12-11T08:16:07;19.83;;;14.17;;
9563;SDS011;4820;50.870;4.702;2022-12-11T08:18:37;18.00;;;12.67;;
9563;SDS011;4820;50.870;4.702;2022-12-11T08:23:39;18.47;;;12.23;;
9563;SDS011;4820;50.870;4.702;2022-12-11T08:26:06;18.37;;;12.17;;
9563;SDS011;4820;50.870;4.702;2022-12-11T08:28:34;17.90;;;12.27;;
9563;SDS011;4820;50.870;4.702;2022-12-11T08:31:02;17.77;;;12.43;;
9563;SDS011;4820;50.870;4.702;2022-12-11T08:33:32;19.90;;;13.50;;
9563;SDS011;4820;50.870;4.702;2022-12-11T08:36:00;16.17;;;12.20;;
9563;SDS011;4820;50.870;4.702;2022-12-11T08:38:27;17.80;;;12.37;;
9563;SDS011;4820;50.870;4.702;2022-12-11T08:40:53;16.77;;;12.30;;
9563;SDS011;4820;50.870;4.702;2022-12-11T08:43:19;19.97;;;13.20;;
9563;SDS011;4820;50.870;4.702;2022-12-11T08:45:45;17.80;;;12.67;;
9563;SDS011;4820;50.870;4.702;2022-12-11T08:48:11;17.10;;;12.17;;
9563;SDS011;4820;50.870;4.702;2022-12-11T08:50:36;17.37;;;12.10;;
9563;SDS011;4820;50.870;4.702;2022-12-11T08:53:02;18.07;;;12.70;;
9563;SDS011;4820;50.870;4.702;2022-12-11T08:55:28;17.77;;;13.10;;
9563;SDS011;4820;50.870;4.702;2022-12-11T08:57:53;16.97;;;11.90;;
9563;SDS011;4820;50.870;4.702;2022-12-11T09:00:19;17.13;;;12.40;;
9563;SDS011;4820;50.870;4.702;2022-12-11T09:02:46;18.80;;;12.37;;
9563;SDS011;4820;50.870;4.702;2022-12-11T09:05:12;17.73;;;12.60;;
9563;SDS011;4820;50.870;4.702;2022-12-11T09:07:38;17.37;;;12.77;;
9563;SDS011;4820;50.870;4.702;2022-12-11T09:10:04;19.77;;;13.03;;
9563;SDS011;4820;50.870;4.702;2022-12-11T09:12:32;17.97;;;12.37;;
9563;SDS011;4820;50.870;4.702;2022-12-11T09:14:58;17.63;;;12.10;;
9563;SDS011;4820;50.870;4.702;2022-12-11T09:17:24;17.83;;;12.90;;
9563;SDS011;4820;50.870;4.702;2022-12-11T09:19:50;16.70;;;12.07;;
9563;SDS011;4820;50.870;4.702;2022-12-11T09:22:16;17.00;;;12.10;;
9563;SDS011;4820;50.870;4.702;2022-12-11T09:24:41;16.57;;;11.47;;
9563;SDS011;4820;50.870;4.702;2022-12-11T09:27:07;19.93;;;12.87;;
9563;SDS011;4820;50.870;4.702;2022-12-11T09:29:33;18.77;;;12.93;;
9563;SDS011;4820;50.870;4.702;2022-12-11T09:31:58;17.17;;;12.03;;
9563;SDS011;4820;50.870;4.702;2022-12-11T09:34:24;17.00;;;12.37;;
9563;SDS011;4820;50.870;4.702;2022-12-11T09:36:50;15.63;;;11.17;;
9563;SDS011;4820;50.870;4.702;2022-12-11T09:39:16;20.37;;;11.73;;
9563;SDS011;4820;50.870;4.702;2022-12-11T09:44:30;18.23;;;11.70;;
9563;SDS011;4820;50.870;4.702;2022-12-11T09:47:15;14.30;;;10.43;;
9563;SDS011;4820;50.870;4.702;2022-12-11T09:50:03;14.13;;;10.53;;
9563;SDS011;4820;50.870;4.702;2022-12-11T10:06:47;16.80;;;12.07;;
9563;SDS011;4820;50.870;4.702;2022-12-11T10:17:46;16.50;;;11.33;;
9563;SDS011;4820;50.870;4.702;2022-12-11T10:20:27;15.33;;;10.63;;
9563;SDS011;4820;50.870;4.702;2022-12-11T10:22:57;14.27;;;10.33;;
9563;SDS011;4820;50.870;4.702;2022-12-11T10:25:31;15.80;;;10.50;;
9563;SDS011;4820;50.870;4.702;2022-12-11T10:28:10;14.93;;;10.60;;
9563;SDS011;4820;50.870;4.702;2022-12-11T10:30:43;13.87;;;10.70;;
9563;SDS011;4820;50.870;4.702;2022-12-11T10:33:20;17.10;;;11.53;;
9563;SDS011;4820;50.870;4.702;2022-12-11T10:35:54;14.90;;;11.33;;
9563;SDS011;4820;50.870;4.702;2022-12-11T10:38:29;15.60;;;10.80;;
9563;SDS011;4820;50.870;4.702;2022-12-11T10:41:09;17.13;;;11.77;;
9563;SDS011;4820;50.870;4.702;2022-12-11T10:43:39;17.20;;;11.27;;
9563;SDS011;4820;50.870;4.702;2022-12-11T10:46:28;17.30;;;12.10;;
9563;SDS011;4820;50.870;4.702;2022-12-11T10:48:58;17.17;;;11.57;;
9563;SDS011;4820;50.870;4.702;2022-12-11T10:53:57;14.80;;;10.47;;
9563;SDS011;4820;50.870;4.702;2022-12-11T10:56:50;15.57;;;11.33;;
9563;SDS011;4820;50.870;4.702;2022-12-11T10:59:21;15.57;;;10.80;;
9563;SDS011;4820;50.870;4.702;2022-12-11T11:01:53;15.60;;;10.87;;
9563;SDS011;4820;50.870;4.702;2022-12-11T11:04:32;16.70;;;10.80;;
9563;SDS011;4820;50.870;4.702;2022-12-11T11:07:10;16.20;;;11.03;;
9563;SDS011;4820;50.870;4.702;2022-12-11T11:09:48;16.10;;;11.10;;
9563;SDS011;4820;50.870;4.702;2022-12-11T11:12:43;16.57;;;11.00;;
9563;SDS011;4820;50.870;4.702;2022-12-11T11:15:15;15.20;;;10.37;;
9563;SDS011;4820;50.870;4.702;2022-12-11T11:18:10;14.13;;;10.63;;
9563;SDS011;4820;50.870;4.702;2022-12-11T11:20:45;15.00;;;10.67;;
9563;SDS011;4820;50.870;4.702;2022-12-11T11:23:13;15.20;;;11.07;;
9563;SDS011;4820;50.870;4.702;2022-12-11T11:25:47;16.27;;;10.17;;
9563;SDS011;4820;50.870;4.702;2022-12-11T11:28:54;13.50;;;10.30;;
9563;SDS011;4820;50.870;4.702;2022-12-11T11:31:14;14.50;;;10.07;;
9563;SDS011;4820;50.870;4.702;2022-12-11T11:33:53;13.50;;;10.27;;
9563;SDS011;4820;50.870;4.702;2022-12-11T11:36:23;15.97;;;11.17;;
9563;SDS011;4820;50.870;4.702;2022-12-11T11:44:36;17.75;;;11.23;;
9563;SDS011;4820;50.870;4.702;2022-12-11T11:47:13;15.90;;;10.27;;
9563;SDS011;4820;50.870;4.702;2022-12-11T11:49:50;14.30;;;9.97;;
9563;SDS011;4820;50.870;4.702;2022-12-11T11:52:47;15.33;;;10.87;;
9563;SDS011;4820;50.870;4.702;2022-12-11T11:55:17;15.67;;;10.93;;
9563;SDS011;4820;50.870;4.702;2022-12-11T11:58:14;15.73;;;10.40;;
9563;SDS011;4820;50.870;4.702;2022-12-11T12:00:43;17.10;;;10.77;;
9563;SDS011;4820;50.870;4.702;2022-12-11T12:03:14;15.77;;;11.37;;
9563;SDS011;4820;50.870;4.702;2022-12-11T12:05:53;14.83;;;10.27;;
9563;SDS011;4820;50.870;4.702;2022-12-11T12:17:51;15.27;;;9.73;;
9563;SDS011;4820;50.870;4.702;2022-12-11T12:26:30;14.53;;;10.27;;
9563;SDS011;4820;50.870;4.702;2022-12-11T12:29:08;15.30;;;10.40;;
9563;SDS011;4820;50.870;4.702;2022-12-11T12:31:57;19.17;;;12.70;;
9563;SDS011;4820;50.870;4.702;2022-12-11T12:42:57;15.35;;;10.27;;
9563;SDS011;4820;50.870;4.702;2022-12-11T12:46:02;16.70;;;10.30;;
9563;SDS011;4820;50.870;4.702;2022-12-11T12:48:45;15.67;;;10.40;;
9563;SDS011;4820;50.870;4.702;2022-12-11T12:51:12;15.07;;;10.53;;
9563;SDS011;4820;50.870;4.702;2022-12-11T12:53:39;15.87;;;11.30;;
9563;SDS011;4820;50.870;4.702;2022-12-11T12:56:09;13.30;;;9.63;;
9563;SDS011;4820;50.870;4.702;2022-12-11T13:01:05;18.73;;;10.53;;
9563;SDS011;4820;50.870;4.702;2022-12-11T13:06:39;14.77;;;10.43;;
9563;SDS011;4820;50.870;4.702;2022-12-11T13:11:44;15.77;;;10.77;;
9563;SDS011;4820;50.870;4.702;2022-12-11T13:16:40;14.15;;;10.27;;
9563;SDS011;4820;50.870;4.702;2022-12-11T13:19:24;15.93;;;10.70;;
9563;SDS011;4820;50.870;4.702;2022-12-11T13:22:00;13.33;;;10.13;;
9563;SDS011;4820;50.870;4.702;2022-12-11T13:24:30;15.77;;;11.20;;
9563;SDS011;4820;50.870;4.702;2022-12-11T13:27:07;13.50;;;10.13;;
9563;SDS011;4820;50.870;4.702;2022-12-11T13:29:36;15.50;;;10.73;;
9563;SDS011;4820;50.870;4.702;2022-12-11T13:34:38;16.55;;;10.43;;
9563;SDS011;4820;50.870;4.702;2022-12-11T13:39:59;16.17;;;11.38;;
9563;SDS011;4820;50.870;4.702;2022-12-11T13:42:32;15.23;;;10.63;;
9563;SDS011;4820;50.870;4.702;2022-12-11T13:45:01;17.27;;;11.18;;
9563;SDS011;4820;50.870;4.702;2022-12-11T13:47:28;18.80;;;10.98;;
9563;SDS011;4820;50.870;4.702;2022-12-11T13:49:59;16.77;;;11.00;;
9563;SDS011;4820;50.870;4.702;2022-12-11T13:52:40;20.67;;;13.20;;
9563;SDS011;4820;50.870;4.702;2022-12-11T13:55:22;15.43;;;10.67;;
9563;SDS011;4820;50.870;4.702;2022-12-11T13:57:56;16.40;;;10.38;;
9563;SDS011;4820;50.870;4.702;2022-12-11T14:00:24;19.27;;;11.07;;
9563;SDS011;4820;50.870;4.702;2022-12-11T14:02:52;19.67;;;13.77;;
9563;SDS011;4820;50.870;4.702;2022-12-11T14:05:20;19.08;;;13.25;;
9563;SDS011;4820;50.870;4.702;2022-12-11T14:07:47;17.03;;;11.37;;
9563;SDS011;4820;50.870;4.702;2022-12-11T14:10:21;16.27;;;11.03;;
9563;SDS011;4820;50.870;4.702;2022-12-11T14:12:57;16.52;;;11.50;;
9563;SDS011;4820;50.870;4.702;2022-12-11T14:15:30;18.57;;;11.57;;
9563;SDS011;4820;50.870;4.702;2022-12-11T14:17:57;15.73;;;10.77;;
9563;SDS011;4820;50.870;4.702;2022-12-11T14:20:25;15.23;;;10.97;;
9563;SDS011;4820;50.870;4.702;2022-12-11T14:23:07;16.20;;;10.83;;
9563;SDS011;4820;50.870;4.702;2022-12-11T14:25:57;16.15;;;10.50;;
9563;SDS011;4820;50.870;4.702;2022-12-11T14:28:25;14.87;;;10.90;;
9563;SDS011;4820;50.870;4.702;2022-12-11T14:30:55;15.60;;;11.03;;
9563;SDS011;4820;50.870;4.702;2022-12-11T14:33:33;17.17;;;10.82;;
9563;SDS011;4820;50.870;4.702;2022-12-11T14:36:02;16.20;;;10.70;;
9563;SDS011;4820;50.870;4.702;2022-12-11T14:38:32;16.77;;;11.47;;
9563;SDS011;4820;50.870;4.702;2022-12-11T14:41:12;16.73;;;11.53;;
9563;SDS011;4820;50.870;4.702;2022-12-11T14:43:43;17.73;;;11.07;;
9563;SDS011;4820;50.870;4.702;2022-12-11T14:46:16;18.17;;;12.15;;
9563;SDS011;4820;50.870;4.702;2022-12-11T14:48:51;16.33;;;10.80;;
9563;SDS011;4820;50.870;4.702;2022-12-11T14:51:22;18.40;;;12.43;;
9563;SDS011;4820;50.870;4.702;2022-12-11T14:53:52;17.23;;;11.77;;
9563;SDS011;4820;50.870;4.702;2022-12-11T14:56:20;35.50;;;24.00;;
9563;SDS011;4820;50.870;4.702;2022-12-11T14:59:04;41.00;;;28.03;;
9563;SDS011;4820;50.870;4.702;2022-12-11T15:01:40;38.37;;;26.20;;
9563;SDS011;4820;50.870;4.702;2022-12-11T15:04:28;32.00;;;22.20;;
9563;SDS011;4820;50.870;4.702;2022-12-11T15:06:54;27.67;;;18.40;;
9563;SDS011;4820;50.870;4.702;2022-12-11T15:11:50;23.57;;;16.73;;
9563;SDS011;4820;50.870;4.702;2022-12-11T15:14:20;24.95;;;17.75;;
9563;SDS011;4820;50.870;4.702;2022-12-11T15:16:48;25.40;;;18.57;;
9563;SDS011;4820;50.870;4.702;2022-12-11T15:19:20;22.67;;;16.57;;
9563;SDS011;4820;50.870;4.702;2022-12-11T15:21:52;23.63;;;15.50;;
9563;SDS011;4820;50.870;4.702;2022-12-11T15:24:27;22.00;;;16.17;;
9563;SDS011;4820;50.870;4.702;2022-12-11T15:27:00;24.50;;;16.90;;
9563;SDS011;4820;50.870;4.702;2022-12-11T15:31:59;19.93;;;14.30;;
9563;SDS011;4820;50.870;4.702;2022-12-11T15:34:31;21.60;;;15.00;;
9563;SDS011;4820;50.870;4.702;2022-12-11T15:36:58;35.03;;;23.40;;
9563;SDS011;4820;50.870;4.702;2022-12-11T15:39:24;26.63;;;18.20;;
9563;SDS011;4820;50.870;4.702;2022-12-11T15:41:50;39.73;;;21.93;;
9563;SDS011;4820;50.870;4.702;2022-12-11T15:44:17;28.77;;;17.77;;
9563;SDS011;4820;50.870;4.702;2022-12-11T15:46:45;33.90;;;23.43;;
9563;SDS011;4820;50.870;4.702;2022-12-11T15:49:11;27.00;;;19.93;;
9563;SDS011;4820;50.870;4.702;2022-12-11T15:51:37;21.38;;;15.57;;
9563;SDS011;4820;50.870;4.702;2022-12-11T15:54:06;24.33;;;18.20;;
9563;SDS011;4820;50.870;4.702;2022-12-11T15:56:32;20.43;;;14.83;;
9563;SDS011;4820;50.870;4.702;2022-12-11T15:59:02;20.70;;;15.40;;
9563;SDS011;4820;50.870;4.702;2022-12-11T16:01:30;17.93;;;12.73;;
9563;SDS011;4820;50.870;4.702;2022-12-11T16:03:56;20.27;;;13.50;;
9563;SDS011;4820;50.870;4.702;2022-12-11T16:06:22;19.83;;;13.97;;
9563;SDS011;4820;50.870;4.702;2022-12-11T16:08:47;18.87;;;13.60;;
9563;SDS011;4820;50.870;4.702;2022-12-11T16:11:14;25.17;;;19.00;;
9563;SDS011;4820;50.870;4.702;2022-12-11T16:13:43;18.27;;;12.57;;
9563;SDS011;4820;50.870;4.702;2022-12-11T16:16:08;21.63;;;15.73;;
9563;SDS011;4820;50.870;4.702;2022-12-11T16:18:34;20.53;;;13.40;;
9563;SDS011;4820;50.870;4.702;2022-12-11T16:21:02;22.20;;;13.93;;
9563;SDS011;4820;50.870;4.702;2022-12-11T16:23:29;24.53;;;15.50;;
9563;SDS011;4820;50.870;4.702;2022-12-11T16:25:54;21.27;;;14.20;;
9563;SDS011;4820;50.870;4.702;2022-12-11T16:28:20;21.33;;;13.23;;
9563;SDS011;4820;50.870;4.702;2022-12-11T16:30:46;18.20;;;12.77;;
9563;SDS011;4820;50.870;4.702;2022-12-11T16:33:11;18.83;;;13.67;;
9563;SDS011;4820;50.870;4.702;2022-12-11T16:35:38;19.30;;;13.80;;
9563;SDS011;4820;50.870;4.702;2022-12-11T16:38:05;17.47;;;12.37;;
9563;SDS011;4820;50.870;4.702;2022-12-11T16:40:31;17.33;;;12.57;;
9563;SDS011;4820;50.870;4.702;2022-12-11T16:42:57;19.80;;;14.10;;
9563;SDS011;4820;50.870;4.702;2022-12-11T16:45:23;20.53;;;13.17;;